createdAt,value
2023-03-17T04:12:52.962Z,52.43
2023-03-17T04:13:52.869Z,51.79
2023-03-17T04:14:52.821Z,51.02
2023-03-17T04:15:52.864Z,50.21
2023-03-17T04:16:52.805Z,50.85
2023-03-17T04:17:52.849Z,52.72
2023-03-17T04:18:52.870Z,52.94
2023-03-17T04:19:52.802Z,51.24
2023-03-17T04:20:52.787Z,52.93
2023-03-17T04:21:54.658Z,52.13
2023-03-17T04:22:53.767Z,55.23
2023-03-17T04:23:52.766Z,52.73
2023-03-17T04:24:52.717Z,52.33
2023-03-17T04:25:52.714Z,54.98
2023-03-17T04:26:52.691Z,52.85
2023-03-17T04:27:52.724Z,53.61
2023-03-17T04:28:52.741Z,52.88
2023-03-17T04:29:52.722Z,52.13
2023-03-17T04:30:52.725Z,54.14
2023-03-17T04:31:52.740Z,54.19
2023-03-17T04:32:52.713Z,52.66
2023-03-17T04:33:52.670Z,54.33
2023-03-17T04:34:52.676Z,53.04
2023-03-17T04:35:52.745Z,54.94
2023-03-17T04:36:52.623Z,55.94
2023-03-17T04:37:52.655Z,54.44
2023-03-17T04:38:52.630Z,56.19
2023-03-17T04:39:52.641Z,55.60
2023-03-17T04:40:52.597Z,57.17
2023-03-17T04:41:52.609Z,53.76
2023-03-17T04:42:52.630Z,55.15
2023-03-17T04:43:52.636Z,53.34
2023-03-17T04:44:52.584Z,54.80
2023-03-17T04:45:52.700Z,55.67
2023-03-17T04:46:52.714Z,54.88
2023-03-17T04:47:52.579Z,53.93
2023-03-17T04:48:52.589Z,55.57
2023-03-17T04:49:52.563Z,55.74
2023-03-17T04:50:52.561Z,53.92
2023-03-17T04:51:52.540Z,56.78
2023-03-17T04:52:53.485Z,55.87
2023-03-17T04:53:52.606Z,54.31
2023-03-17T04:54:52.554Z,52.89
2023-03-17T04:55:52.541Z,55.82
2023-03-17T04:56:53.535Z,54.78
2023-03-17T04:57:52.538Z,54.56
2023-03-17T04:58:52.559Z,57.07
2023-03-17T04:59:52.522Z,52.09
2023-03-17T05:00:52.533Z,55.64
2023-03-17T05:01:52.545Z,54.04
2023-03-17T05:02:52.486Z,54.20
2023-03-17T05:03:52.474Z,52.73
2023-03-17T05:04:52.471Z,57.82
2023-03-17T05:05:52.537Z,55.71
2023-03-17T05:06:52.461Z,54.01
2023-03-17T05:07:52.436Z,54.51
2023-03-17T05:08:52.482Z,57.10
2023-03-17T05:09:52.983Z,55.62
2023-03-17T05:10:52.399Z,55.16
2023-03-17T05:11:52.437Z,54.57
2023-03-17T05:12:52.422Z,56.11
2023-03-17T05:13:52.403Z,56.79
2023-03-17T05:14:52.400Z,55.54
2023-03-17T05:15:52.395Z,54.94
2023-03-17T05:16:52.445Z,53.93
2023-03-17T05:17:52.345Z,52.48
2023-03-17T05:18:52.362Z,54.86
2023-03-17T05:19:52.373Z,55.44
2023-03-17T05:20:52.351Z,55.99
2023-03-17T05:21:52.361Z,56.00
2023-03-17T05:22:52.984Z,55.13
2023-03-17T05:23:54.911Z,55.76
2023-03-17T05:24:53.311Z,58.05
2023-03-17T05:25:52.316Z,55.64
2023-03-17T05:26:52.294Z,55.42
2023-03-17T05:27:52.316Z,55.51
2023-03-17T05:28:52.291Z,55.78
2023-03-17T05:29:52.277Z,56.20
2023-03-17T05:30:52.315Z,55.36
2023-03-17T05:31:52.291Z,55.61
2023-03-17T05:32:52.391Z,55.91
2023-03-17T05:33:52.254Z,57.30
2023-03-17T05:34:52.283Z,57.56
2023-03-17T05:35:52.415Z,57.49
2023-03-17T05:36:52.260Z,57.06
2023-03-17T05:37:52.216Z,56.94
2023-03-17T05:38:52.208Z,57.86
2023-03-17T05:39:52.231Z,56.22
2023-03-17T05:40:52.218Z,57.95
2023-03-17T05:41:52.243Z,57.72
2023-03-17T05:42:52.214Z,58.24
2023-03-17T05:43:52.205Z,57.16
2023-03-17T05:44:52.202Z,58.17
2023-03-17T05:45:52.251Z,57.92
2023-03-17T05:46:52.200Z,55.02
2023-03-17T05:47:52.185Z,55.29
2023-03-17T05:48:52.161Z,56.38
2023-03-17T05:49:52.164Z,57.11
2023-03-17T05:50:52.167Z,55.89
2023-03-17T05:51:52.105Z,56.57
2023-03-17T05:52:52.119Z,55.81
2023-03-17T05:53:52.119Z,57.31
2023-03-17T05:54:52.092Z,56.83
2023-03-17T05:55:52.117Z,56.09
2023-03-17T05:56:52.090Z,57.38
2023-03-17T05:57:52.096Z,56.96
2023-03-17T05:58:52.090Z,57.20
2023-03-17T05:59:52.134Z,57.54
2023-03-17T06:00:52.061Z,56.05
2023-03-17T06:01:52.070Z,58.89
2023-03-17T06:02:52.104Z,57.97
2023-03-17T06:03:52.067Z,56.13
2023-03-17T06:04:52.075Z,57.48
2023-03-17T06:05:52.046Z,57.85
2023-03-17T06:06:52.024Z,58.00
2023-03-17T06:07:56.210Z,56.06
2023-03-17T06:08:53.056Z,56.34
2023-03-17T06:09:52.074Z,56.72
2023-03-17T06:10:52.026Z,56.59
2023-03-17T06:11:51.996Z,57.14
2023-03-17T06:12:51.984Z,57.58
2023-03-17T06:13:51.976Z,55.54
2023-03-17T06:14:52.028Z,58.15
2023-03-17T06:15:52.004Z,56.71
2023-03-17T06:16:51.989Z,56.04
2023-03-17T06:17:51.965Z,57.63
2023-03-17T06:18:51.957Z,57.74
2023-03-17T06:19:51.985Z,58.38
2023-03-17T06:20:51.928Z,57.72
2023-03-17T06:21:51.944Z,56.83
2023-03-17T06:23:04.028Z,55.94
2023-03-17T06:23:53.891Z,54.94
2023-03-17T06:24:51.973Z,57.91
2023-03-17T06:25:51.919Z,56.16
2023-03-17T06:26:51.894Z,57.57
2023-03-17T06:27:51.913Z,57.82
2023-03-17T06:28:51.900Z,57.53
2023-03-17T06:29:51.904Z,56.62
2023-03-17T06:30:52.894Z,59.12
2023-03-17T06:31:51.880Z,58.97
2023-03-17T06:32:51.963Z,59.57
2023-03-17T06:33:51.879Z,60.32
2023-03-17T06:34:51.900Z,59.14
2023-03-17T06:35:51.891Z,57.65
2023-03-17T06:36:51.847Z,59.86
2023-03-17T06:37:51.857Z,57.04
2023-03-17T06:38:51.840Z,55.86
2023-03-17T06:39:51.815Z,58.73
2023-03-17T06:40:51.827Z,56.72
2023-03-17T06:41:51.820Z,57.55
2023-03-17T06:42:51.805Z,58.45
2023-03-17T06:43:51.785Z,58.48
2023-03-17T06:44:51.812Z,58.42
2023-03-17T06:45:51.794Z,58.29
2023-03-17T06:46:52.826Z,57.86
2023-03-17T06:47:51.774Z,59.51
2023-03-17T06:48:51.739Z,56.49
2023-03-17T06:49:51.740Z,57.09
2023-03-17T06:50:51.729Z,57.86
2023-03-17T06:51:51.718Z,57.79
2023-03-17T06:52:51.783Z,56.72
2023-03-17T06:53:51.758Z,59.51
2023-03-17T06:54:51.715Z,58.33
2023-03-17T06:55:51.684Z,56.25
2023-03-17T06:56:51.682Z,56.39
2023-03-17T06:57:51.707Z,57.22
2023-03-17T06:58:51.720Z,56.54
2023-03-17T06:59:51.670Z,58.73
2023-03-17T07:00:52.659Z,56.08
2023-03-17T07:01:51.713Z,57.22
2023-03-17T07:02:51.671Z,59.42
2023-03-17T07:03:51.633Z,56.97
2023-03-17T07:04:51.713Z,56.51
2023-03-17T07:05:51.619Z,56.70
2023-03-17T07:06:51.621Z,56.16
2023-03-17T07:07:51.634Z,53.69
2023-03-17T07:08:51.643Z,56.30
2023-03-17T07:09:51.616Z,55.53
2023-03-17T07:10:51.603Z,54.47
2023-03-17T07:11:51.585Z,56.09
2023-03-17T07:12:51.608Z,54.79
2023-03-17T07:13:51.580Z,56.03
2023-03-17T07:14:51.559Z,56.24
2023-03-17T07:15:53.864Z,56.69
2023-03-17T07:16:51.695Z,54.74
2023-03-17T07:17:51.576Z,54.81
2023-03-17T07:18:51.556Z,54.19
2023-03-17T07:19:51.558Z,54.20
2023-03-17T07:20:51.577Z,54.88
2023-03-17T07:21:51.527Z,56.11
2023-03-17T07:22:51.575Z,53.89
2023-03-17T07:23:51.526Z,54.78
2023-03-17T07:24:51.551Z,56.33
2023-03-17T07:25:51.510Z,56.61
2023-03-17T07:26:51.469Z,55.40
2023-03-17T07:27:51.496Z,55.95
2023-03-17T07:28:51.496Z,55.60
2023-03-17T07:29:51.481Z,55.98
2023-03-17T07:30:51.466Z,54.95
2023-03-17T07:31:51.559Z,54.50
2023-03-17T07:32:51.520Z,55.58
2023-03-17T07:33:51.441Z,55.16
2023-03-17T07:34:51.457Z,54.20
2023-03-17T07:35:51.448Z,53.93
2023-03-17T07:36:51.396Z,53.85
2023-03-17T07:37:51.431Z,53.03
2023-03-17T07:38:51.416Z,54.75
2023-03-17T07:39:51.456Z,54.75
2023-03-17T07:40:51.422Z,55.76
2023-03-17T07:41:51.367Z,54.40
2023-03-17T07:42:51.405Z,54.07
2023-03-17T07:43:51.390Z,51.69
2023-03-17T07:44:51.401Z,52.88
2023-03-17T07:45:51.372Z,54.10
2023-03-17T07:46:51.365Z,54.95
2023-03-17T07:47:51.318Z,55.20
2023-03-17T07:48:51.371Z,54.07
2023-03-17T07:49:51.382Z,54.60
2023-03-17T07:50:51.349Z,54.82
2023-03-17T07:51:51.300Z,54.11
2023-03-17T07:52:51.308Z,53.08
2023-03-17T07:53:51.302Z,51.35
2023-03-17T07:54:51.299Z,52.52
2023-03-17T07:55:51.288Z,52.58
2023-03-17T07:56:51.297Z,50.61
2023-03-17T07:57:51.328Z,54.76
2023-03-17T07:58:51.303Z,54.32
2023-03-17T07:59:51.309Z,54.13
2023-03-17T08:00:51.249Z,53.99
2023-03-17T08:01:51.262Z,54.84
2023-03-17T08:03:07.029Z,52.36
2023-03-17T08:03:53.289Z,53.31
2023-03-17T08:04:51.255Z,52.81
2023-03-17T08:05:51.251Z,52.13
2023-03-17T08:06:51.225Z,53.14
2023-03-17T08:07:51.217Z,53.05
2023-03-17T08:08:51.178Z,53.15
2023-03-17T08:09:52.202Z,53.14
2023-03-17T08:10:51.231Z,56.02
2023-03-17T08:11:51.210Z,55.00
2023-03-17T08:12:51.179Z,52.97
2023-03-17T08:13:51.167Z,53.52
2023-03-17T08:14:51.212Z,53.94
2023-03-17T08:15:51.152Z,54.31
2023-03-17T08:16:51.275Z,53.74
2023-03-17T08:17:51.141Z,52.10
2023-03-17T08:18:51.149Z,53.12
2023-03-17T08:19:51.154Z,54.62
2023-03-17T08:20:51.132Z,53.67
2023-03-17T08:21:51.113Z,54.17
2023-03-17T08:22:51.096Z,53.37
2023-03-17T08:23:51.115Z,53.82
2023-03-17T08:24:51.103Z,53.37
2023-03-17T08:25:52.111Z,51.52
2023-03-17T08:26:51.154Z,50.99
2023-03-17T08:27:51.059Z,52.34
2023-03-17T08:28:51.086Z,51.84
2023-03-17T08:29:51.107Z,51.46
2023-03-17T08:30:51.152Z,50.73
2023-03-17T08:31:51.122Z,52.75
2023-03-17T08:32:51.106Z,53.11
2023-03-17T08:33:51.030Z,51.39
2023-03-17T08:34:51.043Z,52.09
2023-03-17T08:35:51.061Z,52.25
2023-03-17T08:36:50.998Z,51.40
2023-03-17T08:37:51.021Z,51.44
2023-03-17T08:38:51.127Z,51.09
2023-03-17T08:39:50.985Z,52.75
2023-03-17T08:40:51.035Z,53.40
2023-03-17T08:41:51.017Z,52.83
2023-03-17T08:42:50.955Z,50.10
2023-03-17T08:43:51.018Z,54.04
2023-03-17T08:44:50.962Z,50.75
2023-03-17T08:45:51.012Z,52.31
2023-03-17T08:46:50.978Z,52.31
2023-03-17T08:47:50.966Z,53.26
2023-03-17T08:48:50.954Z,51.74
2023-03-17T08:49:50.912Z,51.55
2023-03-17T08:50:50.905Z,52.59
2023-03-17T08:51:50.946Z,53.66
2023-03-17T08:52:50.915Z,53.08
2023-03-17T08:53:50.886Z,53.50
2023-03-17T08:54:50.888Z,52.33
2023-03-17T08:55:50.903Z,53.31
2023-03-17T08:56:50.899Z,51.66
2023-03-17T08:57:50.877Z,50.19
2023-03-17T08:58:50.904Z,50.24
2023-03-17T08:59:51.839Z,51.59
2023-03-17T09:00:50.867Z,52.40
2023-03-17T09:01:50.886Z,52.78
2023-03-17T09:02:50.899Z,52.29
2023-03-17T09:03:50.815Z,49.90
2023-03-17T09:04:50.799Z,53.34
2023-03-17T09:05:50.861Z,53.30
2023-03-17T09:07:02.725Z,51.39
2023-03-17T09:07:52.880Z,50.50
2023-03-17T09:08:50.772Z,50.38
2023-03-17T09:09:50.765Z,51.55
2023-03-17T09:10:51.855Z,53.33
2023-03-17T09:11:50.795Z,51.86
2023-03-17T09:12:50.779Z,53.46
2023-03-17T09:13:50.752Z,51.91
2023-03-17T09:14:50.733Z,53.46
2023-03-17T09:15:52.053Z,52.60
2023-03-17T09:16:51.762Z,50.89
2023-03-17T09:17:51.743Z,51.76
2023-03-17T09:18:50.780Z,51.31
2023-03-17T09:19:50.737Z,50.40
2023-03-17T09:20:50.748Z,53.07
2023-03-17T09:21:50.708Z,51.81
2023-03-17T09:22:50.694Z,51.04
2023-03-17T09:23:50.720Z,52.00
2023-03-17T09:24:50.695Z,50.04
2023-03-17T09:25:50.711Z,51.28
2023-03-17T09:26:50.664Z,50.61
2023-03-17T09:27:50.641Z,51.21
2023-03-17T09:28:50.624Z,52.36
2023-03-17T09:29:50.662Z,53.69
2023-03-17T09:30:50.705Z,51.33
2023-03-17T09:31:50.643Z,50.57
2023-03-17T09:32:50.670Z,51.70
2023-03-17T09:33:50.634Z,52.28
2023-03-17T09:34:51.685Z,54.20
2023-03-17T09:35:51.621Z,49.98
2023-03-17T09:36:50.609Z,50.31
2023-03-17T09:37:50.633Z,51.72
2023-03-17T09:38:50.577Z,53.12
2023-03-17T09:39:50.596Z,52.02
2023-03-17T09:40:50.604Z,52.48
2023-03-17T09:41:50.540Z,52.55
2023-03-17T09:42:50.566Z,52.56
2023-03-17T09:43:50.533Z,49.19
2023-03-17T09:44:50.557Z,50.45
2023-03-17T09:45:50.554Z,49.85
2023-03-17T09:46:50.637Z,52.66
2023-03-17T09:47:50.488Z,52.19
2023-03-17T09:48:50.515Z,50.12
2023-03-17T09:49:51.312Z,50.06
2023-03-17T09:50:50.518Z,49.87
2023-03-17T09:51:50.502Z,51.88
2023-03-17T09:52:51.523Z,53.41
2023-03-17T09:53:51.488Z,50.53
2023-03-17T09:54:50.477Z,52.61
2023-03-17T09:55:51.412Z,52.16
2023-03-17T09:56:50.478Z,51.72
2023-03-17T09:57:50.460Z,52.95
2023-03-17T09:58:51.343Z,53.04
2023-03-17T09:59:51.482Z,48.35
2023-03-17T10:00:50.464Z,52.94
2023-03-17T10:01:50.472Z,50.75
2023-03-17T10:02:50.419Z,49.87
2023-03-17T10:03:50.399Z,50.63
2023-03-17T10:04:50.501Z,50.79
2023-03-17T10:05:50.441Z,52.02
2023-03-17T10:06:50.369Z,49.91
2023-03-17T10:07:50.377Z,50.68
2023-03-17T10:08:50.369Z,53.36
2023-03-17T10:09:50.375Z,53.15
2023-03-17T10:10:50.470Z,53.03
